sensor_id;sensor_type;location;lat;lon;timestamp;P1;durP1;ratioP1;P2;durP2;ratioP2
11823;SDS011;5969;50.780;7.726;2023-09-19T00:00:52;2.38;;;1.65;;
11823;SDS011;5969;50.780;7.726;2023-09-19T00:03:22;2.42;;;1.83;;
11823;SDS011;5969;50.780;7.726;2023-09-19T00:05:51;2.53;;;1.88;;
11823;SDS011;5969;50.780;7.726;2023-09-19T00:08:18;1.73;;;1.63;;
11823;SDS011;5969;50.780;7.726;2023-09-19T00:10:49;3.05;;;1.73;;
11823;SDS011;5969;50.780;7.726;2023-09-19T00:13:15;2.53;;;1.70;;
11823;SDS011;5969;50.780;7.726;2023-09-19T00:15:44;2.85;;;1.70;;
11823;SDS011;5969;50.780;7.726;2023-09-19T00:18:13;3.35;;;1.90;;
11823;SDS011;5969;50.780;7.726;2023-09-19T00:20:42;2.60;;;1.70;;
11823;SDS011;5969;50.780;7.726;2023-09-19T00:23:14;3.92;;;1.98;;
11823;SDS011;5969;50.780;7.726;2023-09-19T00:25:41;1.92;;;1.50;;
11823;SDS011;5969;50.780;7.726;2023-09-19T00:28:08;2.65;;;1.63;;
11823;SDS011;5969;50.780;7.726;2023-09-19T00:30:35;2.65;;;1.45;;
11823;SDS011;5969;50.780;7.726;2023-09-19T00:33:03;4.15;;;1.70;;
11823;SDS011;5969;50.780;7.726;2023-09-19T00:35:32;2.40;;;1.50;;
11823;SDS011;5969;50.780;7.726;2023-09-19T00:37:59;4.82;;;1.55;;
11823;SDS011;5969;50.780;7.726;2023-09-19T00:40:28;5.47;;;1.75;;
11823;SDS011;5969;50.780;7.726;2023-09-19T00:42:57;3.80;;;1.70;;
11823;SDS011;5969;50.780;7.726;2023-09-19T00:45:25;5.45;;;1.65;;
11823;SDS011;5969;50.780;7.726;2023-09-19T00:47:53;3.65;;;1.73;;
11823;SDS011;5969;50.780;7.726;2023-09-19T00:50:22;3.03;;;1.75;;
11823;SDS011;5969;50.780;7.726;2023-09-19T00:52:53;3.60;;;1.77;;
11823;SDS011;5969;50.780;7.726;2023-09-19T00:55:22;3.65;;;1.77;;
11823;SDS011;5969;50.780;7.726;2023-09-19T00:57:51;6.25;;;1.70;;
11823;SDS011;5969;50.780;7.726;2023-09-19T01:00:19;4.20;;;1.33;;
11823;SDS011;5969;50.780;7.726;2023-09-19T01:02:46;5.07;;;1.73;;
11823;SDS011;5969;50.780;7.726;2023-09-19T01:05:13;2.40;;;1.77;;
11823;SDS011;5969;50.780;7.726;2023-09-19T01:07:40;2.92;;;1.50;;
11823;SDS011;5969;50.780;7.726;2023-09-19T01:10:10;2.92;;;1.70;;
11823;SDS011;5969;50.780;7.726;2023-09-19T01:12:44;3.85;;;1.48;;
11823;SDS011;5969;50.780;7.726;2023-09-19T01:15:21;5.47;;;1.70;;
11823;SDS011;5969;50.780;7.726;2023-09-19T01:17:57;3.40;;;1.63;;
11823;SDS011;5969;50.780;7.726;2023-09-19T01:20:33;3.80;;;1.58;;
11823;SDS011;5969;50.780;7.726;2023-09-19T01:23:09;4.35;;;1.85;;
11823;SDS011;5969;50.780;7.726;2023-09-19T01:28:34;2.78;;;1.60;;
11823;SDS011;5969;50.780;7.726;2023-09-19T01:31:13;3.42;;;1.65;;
11823;SDS011;5969;50.780;7.726;2023-09-19T01:36:27;4.20;;;1.65;;
11823;SDS011;5969;50.780;7.726;2023-09-19T01:38:55;4.57;;;1.48;;
11823;SDS011;5969;50.780;7.726;2023-09-19T01:41:26;7.57;;;1.70;;
11823;SDS011;5969;50.780;7.726;2023-09-19T01:43:58;3.65;;;1.50;;
11823;SDS011;5969;50.780;7.726;2023-09-19T01:46:32;5.80;;;1.90;;
11823;SDS011;5969;50.780;7.726;2023-09-19T01:49:04;4.43;;;1.50;;
11823;SDS011;5969;50.780;7.726;2023-09-19T01:51:46;3.28;;;1.80;;
11823;SDS011;5969;50.780;7.726;2023-09-19T01:54:24;4.38;;;1.92;;
11823;SDS011;5969;50.780;7.726;2023-09-19T01:56:57;4.63;;;1.83;;
11823;SDS011;5969;50.780;7.726;2023-09-19T01:59:31;2.63;;;1.50;;
11823;SDS011;5969;50.780;7.726;2023-09-19T02:02:06;4.65;;;1.45;;
11823;SDS011;5969;50.780;7.726;2023-09-19T02:04:35;6.57;;;1.88;;
11823;SDS011;5969;50.780;7.726;2023-09-19T02:07:02;4.30;;;1.85;;
11823;SDS011;5969;50.780;7.726;2023-09-19T02:09:30;2.45;;;1.42;;
11823;SDS011;5969;50.780;7.726;2023-09-19T02:11:58;4.82;;;1.60;;
11823;SDS011;5969;50.780;7.726;2023-09-19T02:14:25;3.95;;;1.90;;
11823;SDS011;5969;50.780;7.726;2023-09-19T02:16:52;4.43;;;1.80;;
11823;SDS011;5969;50.780;7.726;2023-09-19T02:19:21;3.63;;;1.65;;
11823;SDS011;5969;50.780;7.726;2023-09-19T02:21:48;3.42;;;1.63;;
11823;SDS011;5969;50.780;7.726;2023-09-19T02:24:14;4.93;;;1.70;;
11823;SDS011;5969;50.780;7.726;2023-09-19T02:26:41;2.80;;;1.35;;
11823;SDS011;5969;50.780;7.726;2023-09-19T02:29:08;1.60;;;1.30;;
11823;SDS011;5969;50.780;7.726;2023-09-19T02:31:37;3.58;;;1.60;;
11823;SDS011;5969;50.780;7.726;2023-09-19T02:34:04;4.05;;;1.52;;
11823;SDS011;5969;50.780;7.726;2023-09-19T02:36:33;6.40;;;1.98;;
11823;SDS011;5969;50.780;7.726;2023-09-19T02:39:00;3.53;;;1.63;;
11823;SDS011;5969;50.780;7.726;2023-09-19T02:41:26;3.83;;;1.30;;
11823;SDS011;5969;50.780;7.726;2023-09-19T02:43:54;2.58;;;1.50;;
11823;SDS011;5969;50.780;7.726;2023-09-19T02:46:21;8.27;;;1.90;;
11823;SDS011;5969;50.780;7.726;2023-09-19T02:48:48;3.50;;;1.85;;
11823;SDS011;5969;50.780;7.726;2023-09-19T02:51:15;4.95;;;1.85;;
11823;SDS011;5969;50.780;7.726;2023-09-19T02:53:43;5.57;;;1.65;;
11823;SDS011;5969;50.780;7.726;2023-09-19T02:56:12;3.03;;;1.40;;
11823;SDS011;5969;50.780;7.726;2023-09-19T02:58:40;6.38;;;1.80;;
11823;SDS011;5969;50.780;7.726;2023-09-19T03:01:08;3.80;;;1.70;;
11823;SDS011;5969;50.780;7.726;2023-09-19T03:03:36;5.63;;;1.73;;
11823;SDS011;5969;50.780;7.726;2023-09-19T03:06:04;4.53;;;1.70;;
11823;SDS011;5969;50.780;7.726;2023-09-19T03:08:34;3.63;;;1.80;;
11823;SDS011;5969;50.780;7.726;2023-09-19T03:11:04;4.68;;;1.83;;
11823;SDS011;5969;50.780;7.726;2023-09-19T03:13:32;5.80;;;1.83;;
11823;SDS011;5969;50.780;7.726;2023-09-19T03:16:01;5.22;;;1.63;;
11823;SDS011;5969;50.780;7.726;2023-09-19T03:18:30;4.85;;;1.60;;
11823;SDS011;5969;50.780;7.726;2023-09-19T03:20:58;5.53;;;1.88;;
11823;SDS011;5969;50.780;7.726;2023-09-19T03:23:26;6.15;;;2.20;;
11823;SDS011;5969;50.780;7.726;2023-09-19T03:25:53;6.00;;;1.77;;
11823;SDS011;5969;50.780;7.726;2023-09-19T03:28:22;5.25;;;2.22;;
11823;SDS011;5969;50.780;7.726;2023-09-19T03:30:57;10.80;;;2.17;;
11823;SDS011;5969;50.780;7.726;2023-09-19T03:33:27;4.20;;;1.73;;
11823;SDS011;5969;50.780;7.726;2023-09-19T03:35:56;7.35;;;2.30;;
11823;SDS011;5969;50.780;7.726;2023-09-19T03:38:24;9.15;;;2.13;;
11823;SDS011;5969;50.780;7.726;2023-09-19T03:40:51;9.25;;;2.30;;
11823;SDS011;5969;50.780;7.726;2023-09-19T03:43:18;5.63;;;1.60;;
11823;SDS011;5969;50.780;7.726;2023-09-19T03:45:46;5.38;;;1.98;;
11823;SDS011;5969;50.780;7.726;2023-09-19T03:48:14;6.10;;;2.15;;
11823;SDS011;5969;50.780;7.726;2023-09-19T03:50:41;4.63;;;1.92;;
11823;SDS011;5969;50.780;7.726;2023-09-19T03:53:09;5.53;;;1.90;;
11823;SDS011;5969;50.780;7.726;2023-09-19T03:55:36;5.80;;;2.25;;
11823;SDS011;5969;50.780;7.726;2023-09-19T03:58:03;6.55;;;1.95;;
11823;SDS011;5969;50.780;7.726;2023-09-19T04:00:30;4.70;;;1.85;;
11823;SDS011;5969;50.780;7.726;2023-09-19T04:02:58;5.63;;;1.70;;
11823;SDS011;5969;50.780;7.726;2023-09-19T04:05:28;9.32;;;2.00;;
11823;SDS011;5969;50.780;7.726;2023-09-19T04:07:54;4.45;;;1.92;;
11823;SDS011;5969;50.780;7.726;2023-09-19T04:10:21;7.18;;;2.20;;
11823;SDS011;5969;50.780;7.726;2023-09-19T04:12:51;6.93;;;2.10;;
11823;SDS011;5969;50.780;7.726;2023-09-19T04:15:19;4.70;;;1.83;;
11823;SDS011;5969;50.780;7.726;2023-09-19T04:17:47;7.07;;;2.38;;
11823;SDS011;5969;50.780;7.726;2023-09-19T04:20:15;7.00;;;2.40;;
11823;SDS011;5969;50.780;7.726;2023-09-19T04:22:43;8.80;;;2.35;;
11823;SDS011;5969;50.780;7.726;2023-09-19T04:25:10;4.90;;;2.10;;
11823;SDS011;5969;50.780;7.726;2023-09-19T04:27:38;8.15;;;2.30;;
11823;SDS011;5969;50.780;7.726;2023-09-19T04:30:07;9.52;;;2.20;;
11823;SDS011;5969;50.780;7.726;2023-09-19T04:32:37;8.18;;;2.35;;
11823;SDS011;5969;50.780;7.726;2023-09-19T04:35:05;5.57;;;2.00;;
11823;SDS011;5969;50.780;7.726;2023-09-19T04:37:34;8.73;;;2.25;;
11823;SDS011;5969;50.780;7.726;2023-09-19T04:40:03;8.25;;;2.67;;
11823;SDS011;5969;50.780;7.726;2023-09-19T04:42:31;6.07;;;1.83;;
11823;SDS011;5969;50.780;7.726;2023-09-19T04:44:58;5.53;;;2.13;;
11823;SDS011;5969;50.780;7.726;2023-09-19T04:47:25;8.63;;;2.72;;
11823;SDS011;5969;50.780;7.726;2023-09-19T04:49:52;8.00;;;2.20;;
11823;SDS011;5969;50.780;7.726;2023-09-19T04:52:19;10.32;;;2.30;;
11823;SDS011;5969;50.780;7.726;2023-09-19T04:54:47;8.20;;;2.28;;
11823;SDS011;5969;50.780;7.726;2023-09-19T04:57:14;5.45;;;1.67;;
11823;SDS011;5969;50.780;7.726;2023-09-19T04:59:41;7.50;;;2.35;;
11823;SDS011;5969;50.780;7.726;2023-09-19T05:02:08;4.13;;;2.13;;
11823;SDS011;5969;50.780;7.726;2023-09-19T05:04:35;8.40;;;2.08;;
11823;SDS011;5969;50.780;7.726;2023-09-19T05:07:02;6.90;;;2.33;;
11823;SDS011;5969;50.780;7.726;2023-09-19T05:09:29;5.57;;;2.00;;
11823;SDS011;5969;50.780;7.726;2023-09-19T05:12:00;5.28;;;2.05;;
11823;SDS011;5969;50.780;7.726;2023-09-19T05:14:27;4.82;;;2.35;;
11823;SDS011;5969;50.780;7.726;2023-09-19T05:16:55;8.35;;;2.28;;
11823;SDS011;5969;50.780;7.726;2023-09-19T05:19:21;6.57;;;2.05;;
11823;SDS011;5969;50.780;7.726;2023-09-19T05:21:48;6.05;;;2.30;;
11823;SDS011;5969;50.780;7.726;2023-09-19T05:24:15;5.18;;;1.85;;
11823;SDS011;5969;50.780;7.726;2023-09-19T05:26:42;6.82;;;2.30;;
11823;SDS011;5969;50.780;7.726;2023-09-19T05:29:10;8.43;;;2.00;;
11823;SDS011;5969;50.780;7.726;2023-09-19T05:31:37;7.32;;;2.28;;
11823;SDS011;5969;50.780;7.726;2023-09-19T05:34:06;8.75;;;2.38;;
11823;SDS011;5969;50.780;7.726;2023-09-19T05:36:33;3.33;;;1.70;;
11823;SDS011;5969;50.780;7.726;2023-09-19T05:38:59;10.95;;;2.30;;
11823;SDS011;5969;50.780;7.726;2023-09-19T05:41:26;3.05;;;1.80;;
11823;SDS011;5969;50.780;7.726;2023-09-19T05:43:53;9.00;;;2.38;;
11823;SDS011;5969;50.780;7.726;2023-09-19T05:46:21;5.57;;;2.13;;
11823;SDS011;5969;50.780;7.726;2023-09-19T05:48:48;8.38;;;1.92;;
11823;SDS011;5969;50.780;7.726;2023-09-19T05:51:15;7.70;;;2.13;;
11823;SDS011;5969;50.780;7.726;2023-09-19T05:53:43;6.15;;;2.38;;
11823;SDS011;5969;50.780;7.726;2023-09-19T05:56:13;7.65;;;2.28;;
11823;SDS011;5969;50.780;7.726;2023-09-19T05:58:40;7.18;;;2.88;;
11823;SDS011;5969;50.780;7.726;2023-09-19T06:01:09;5.03;;;2.30;;
11823;SDS011;5969;50.780;7.726;2023-09-19T06:03:37;5.00;;;1.80;;
11823;SDS011;5969;50.780;7.726;2023-09-19T06:06:04;9.05;;;1.90;;
11823;SDS011;5969;50.780;7.726;2023-09-19T06:08:32;4.80;;;2.22;;
11823;SDS011;5969;50.780;7.726;2023-09-19T06:11:00;5.15;;;2.00;;
11823;SDS011;5969;50.780;7.726;2023-09-19T06:13:27;5.57;;;2.13;;
11823;SDS011;5969;50.780;7.726;2023-09-19T06:15:54;6.97;;;2.05;;
11823;SDS011;5969;50.780;7.726;2023-09-19T06:18:23;5.30;;;1.98;;
11823;SDS011;5969;50.780;7.726;2023-09-19T06:20:52;5.75;;;2.03;;
11823;SDS011;5969;50.780;7.726;2023-09-19T06:23:20;6.90;;;1.92;;
11823;SDS011;5969;50.780;7.726;2023-09-19T06:25:48;7.72;;;2.30;;
11823;SDS011;5969;50.780;7.726;2023-09-19T06:28:14;6.10;;;2.05;;
11823;SDS011;5969;50.780;7.726;2023-09-19T06:30:45;5.78;;;2.22;;
11823;SDS011;5969;50.780;7.726;2023-09-19T06:33:12;7.50;;;2.78;;
11823;SDS011;5969;50.780;7.726;2023-09-19T06:35:39;6.47;;;1.80;;
11823;SDS011;5969;50.780;7.726;2023-09-19T06:38:08;5.47;;;1.90;;
11823;SDS011;5969;50.780;7.726;2023-09-19T06:40:38;5.90;;;2.00;;
11823;SDS011;5969;50.780;7.726;2023-09-19T06:43:08;8.98;;;2.20;;
11823;SDS011;5969;50.780;7.726;2023-09-19T06:45:36;4.72;;;1.98;;
11823;SDS011;5969;50.780;7.726;2023-09-19T06:48:03;7.28;;;1.80;;
11823;SDS011;5969;50.780;7.726;2023-09-19T06:50:32;6.90;;;2.20;;
11823;SDS011;5969;50.780;7.726;2023-09-19T06:52:59;5.18;;;2.13;;
11823;SDS011;5969;50.780;7.726;2023-09-19T06:55:29;8.77;;;2.33;;
11823;SDS011;5969;50.780;7.726;2023-09-19T06:57:56;7.47;;;2.10;;
11823;SDS011;5969;50.780;7.726;2023-09-19T07:00:24;6.10;;;1.92;;
11823;SDS011;5969;50.780;7.726;2023-09-19T07:02:56;8.77;;;2.20;;
11823;SDS011;5969;50.780;7.726;2023-09-19T07:05:25;4.85;;;1.88;;
11823;SDS011;5969;50.780;7.726;2023-09-19T07:07:53;6.82;;;2.53;;
11823;SDS011;5969;50.780;7.726;2023-09-19T07:10:20;7.65;;;2.38;;
11823;SDS011;5969;50.780;7.726;2023-09-19T07:12:54;6.45;;;2.20;;
11823;SDS011;5969;50.780;7.726;2023-09-19T07:15:22;8.88;;;2.35;;
11823;SDS011;5969;50.780;7.726;2023-09-19T07:17:50;6.63;;;2.10;;
11823;SDS011;5969;50.780;7.726;2023-09-19T07:20:17;5.78;;;1.92;;
11823;SDS011;5969;50.780;7.726;2023-09-19T07:22:44;7.53;;;2.47;;
11823;SDS011;5969;50.780;7.726;2023-09-19T07:25:12;7.72;;;2.22;;
11823;SDS011;5969;50.780;7.726;2023-09-19T07:27:39;6.43;;;2.13;;
11823;SDS011;5969;50.780;7.726;2023-09-19T07:30:08;8.13;;;2.25;;
11823;SDS011;5969;50.780;7.726;2023-09-19T07:32:36;8.15;;;2.58;;
11823;SDS011;5969;50.780;7.726;2023-09-19T07:35:04;6.30;;;2.22;;
11823;SDS011;5969;50.780;7.726;2023-09-19T07:37:31;6.22;;;2.00;;
11823;SDS011;5969;50.780;7.726;2023-09-19T07:39:59;9.75;;;2.50;;
11823;SDS011;5969;50.780;7.726;2023-09-19T07:42:26;5.30;;;1.90;;
11823;SDS011;5969;50.780;7.726;2023-09-19T07:44:53;9.27;;;2.30;;
11823;SDS011;5969;50.780;7.726;2023-09-19T07:47:21;5.63;;;2.20;;
11823;SDS011;5969;50.780;7.726;2023-09-19T07:49:48;6.03;;;2.38;;
11823;SDS011;5969;50.780;7.726;2023-09-19T07:52:15;5.45;;;2.08;;
11823;SDS011;5969;50.780;7.726;2023-09-19T07:54:42;8.07;;;2.53;;
11823;SDS011;5969;50.780;7.726;2023-09-19T07:57:09;5.85;;;2.22;;
11823;SDS011;5969;50.780;7.726;2023-09-19T07:59:37;4.13;;;2.03;;
11823;SDS011;5969;50.780;7.726;2023-09-19T08:02:04;7.80;;;2.42;;
11823;SDS011;5969;50.780;7.726;2023-09-19T08:04:34;10.25;;;2.50;;
11823;SDS011;5969;50.780;7.726;2023-09-19T08:07:01;10.55;;;2.60;;
11823;SDS011;5969;50.780;7.726;2023-09-19T08:09:30;7.20;;;2.13;;
11823;SDS011;5969;50.780;7.726;2023-09-19T08:11:59;10.70;;;2.60;;
11823;SDS011;5969;50.780;7.726;2023-09-19T08:14:29;6.53;;;2.13;;
11823;SDS011;5969;50.780;7.726;2023-09-19T08:16:56;7.88;;;2.45;;
11823;SDS011;5969;50.780;7.726;2023-09-19T08:19:24;8.05;;;2.40;;
11823;SDS011;5969;50.780;7.726;2023-09-19T08:21:56;8.63;;;2.60;;
11823;SDS011;5969;50.780;7.726;2023-09-19T08:24:24;9.40;;;2.67;;
11823;SDS011;5969;50.780;7.726;2023-09-19T08:26:52;11.85;;;2.72;;
11823;SDS011;5969;50.780;7.726;2023-09-19T08:29:19;7.53;;;2.30;;
11823;SDS011;5969;50.780;7.726;2023-09-19T08:31:46;10.23;;;2.60;;
11823;SDS011;5969;50.780;7.726;2023-09-19T08:34:14;5.47;;;2.33;;
11823;SDS011;5969;50.780;7.726;2023-09-19T08:36:41;8.27;;;2.50;;
11823;SDS011;5969;50.780;7.726;2023-09-19T08:39:10;6.90;;;2.70;;
11823;SDS011;5969;50.780;7.726;2023-09-19T08:41:38;9.85;;;2.58;;
11823;SDS011;5969;50.780;7.726;2023-09-19T08:44:05;7.25;;;2.00;;
11823;SDS011;5969;50.780;7.726;2023-09-19T08:46:33;7.13;;;2.15;;
11823;SDS011;5969;50.780;7.726;2023-09-19T08:49:04;9.02;;;2.15;;
11823;SDS011;5969;50.780;7.726;2023-09-19T08:51:38;10.95;;;2.25;;
11823;SDS011;5969;50.780;7.726;2023-09-19T08:54:12;8.35;;;2.15;;
11823;SDS011;5969;50.780;7.726;2023-09-19T08:56:48;7.38;;;2.33;;
11823;SDS011;5969;50.780;7.726;2023-09-19T08:59:17;9.05;;;2.53;;
11823;SDS011;5969;50.780;7.726;2023-09-19T09:01:50;7.22;;;2.35;;
11823;SDS011;5969;50.780;7.726;2023-09-19T09:04:18;8.77;;;2.72;;
11823;SDS011;5969;50.780;7.726;2023-09-19T09:06:46;4.88;;;2.38;;
11823;SDS011;5969;50.780;7.726;2023-09-19T09:09:15;9.20;;;2.63;;
11823;SDS011;5969;50.780;7.726;2023-09-19T09:11:42;7.53;;;2.38;;
11823;SDS011;5969;50.780;7.726;2023-09-19T09:14:09;7.03;;;2.15;;
11823;SDS011;5969;50.780;7.726;2023-09-19T09:16:36;7.63;;;2.80;;
11823;SDS011;5969;50.780;7.726;2023-09-19T09:19:03;6.40;;;2.50;;
11823;SDS011;5969;50.780;7.726;2023-09-19T09:21:31;7.45;;;2.35;;
11823;SDS011;5969;50.780;7.726;2023-09-19T09:26:55;6.97;;;2.20;;
11823;SDS011;5969;50.780;7.726;2023-09-19T09:29:29;8.23;;;2.20;;
11823;SDS011;5969;50.780;7.726;2023-09-19T09:32:17;9.90;;;2.90;;
11823;SDS011;5969;50.780;7.726;2023-09-19T09:34:45;7.65;;;2.67;;
11823;SDS011;5969;50.780;7.726;2023-09-19T09:37:13;8.98;;;2.90;;
11823;SDS011;5969;50.780;7.726;2023-09-19T09:39:49;6.43;;;2.47;;
11823;SDS011;5969;50.780;7.726;2023-09-19T09:42:31;4.90;;;2.03;;
11823;SDS011;5969;50.780;7.726;2023-09-19T09:45:16;8.32;;;2.50;;
11823;SDS011;5969;50.780;7.726;2023-09-19T09:47:44;5.25;;;2.30;;
11823;SDS011;5969;50.780;7.726;2023-09-19T09:50:27;6.50;;;2.47;;
11823;SDS011;5969;50.780;7.726;2023-09-19T09:53:04;4.90;;;2.00;;
11823;SDS011;5969;50.780;7.726;2023-09-19T09:56:00;7.65;;;2.40;;
11823;SDS011;5969;50.780;7.726;2023-09-19T09:58:30;6.03;;;2.30;;
11823;SDS011;5969;50.780;7.726;2023-09-19T10:00:58;6.40;;;2.10;;
11823;SDS011;5969;50.780;7.726;2023-09-19T10:03:31;6.18;;;2.45;;
11823;SDS011;5969;50.780;7.726;2023-09-19T10:06:03;6.43;;;2.00;;
11823;SDS011;5969;50.780;7.726;2023-09-19T10:09:03;7.45;;;2.58;;
11823;SDS011;5969;50.780;7.726;2023-09-19T10:11:43;4.53;;;2.30;;
11823;SDS011;5969;50.780;7.726;2023-09-19T10:14:12;5.60;;;1.83;;
11823;SDS011;5969;50.780;7.726;2023-09-19T10:16:40;7.28;;;2.20;;
11823;SDS011;5969;50.780;7.726;2023-09-19T10:19:11;5.78;;;2.30;;
11823;SDS011;5969;50.780;7.726;2023-09-19T10:21:49;4.25;;;2.20;;
11823;SDS011;5969;50.780;7.726;2023-09-19T10:24:20;4.78;;;2.42;;
11823;SDS011;5969;50.780;7.726;2023-09-19T10:26:51;5.95;;;2.13;;
11823;SDS011;5969;50.780;7.726;2023-09-19T10:29:19;6.03;;;2.40;;
11823;SDS011;5969;50.780;7.726;2023-09-19T10:31:50;5.88;;;2.03;;
11823;SDS011;5969;50.780;7.726;2023-09-19T10:34:19;8.73;;;2.05;;
11823;SDS011;5969;50.780;7.726;2023-09-19T10:36:47;6.45;;;2.08;;
11823;SDS011;5969;50.780;7.726;2023-09-19T10:39:17;4.70;;;1.73;;
11823;SDS011;5969;50.780;7.726;2023-09-19T10:41:47;7.80;;;2.28;;
11823;SDS011;5969;50.780;7.726;2023-09-19T10:44:20;4.80;;;2.03;;
11823;SDS011;5969;50.780;7.726;2023-09-19T10:46:50;7.78;;;2.47;;
11823;SDS011;5969;50.780;7.726;2023-09-19T10:49:18;4.38;;;2.03;;
11823;SDS011;5969;50.780;7.726;2023-09-19T10:51:45;4.70;;;2.00;;
11823;SDS011;5969;50.780;7.726;2023-09-19T10:54:16;5.68;;;2.00;;
11823;SDS011;5969;50.780;7.726;2023-09-19T10:56:46;3.15;;;1.80;;
11823;SDS011;5969;50.780;7.726;2023-09-19T10:59:17;4.22;;;2.00;;
11823;SDS011;5969;50.780;7.726;2023-09-19T11:01:46;4.03;;;2.08;;
11823;SDS011;5969;50.780;7.726;2023-09-19T11:04:22;5.90;;;2.10;;
11823;SDS011;5969;50.780;7.726;2023-09-19T11:07:00;7.40;;;2.10;;
11823;SDS011;5969;50.780;7.726;2023-09-19T11:09:42;3.75;;;2.15;;
11823;SDS011;5969;50.780;7.726;2023-09-19T11:21:41;5.38;;;2.10;;
11823;SDS011;5969;50.780;7.726;2023-09-19T11:24:32;8.13;;;2.28;;
11823;SDS011;5969;50.780;7.726;2023-09-19T11:27:13;6.28;;;2.38;;
11823;SDS011;5969;50.780;7.726;2023-09-19T11:29:42;8.05;;;2.20;;
11823;SDS011;5969;50.780;7.726;2023-09-19T11:32:10;5.45;;;2.20;;
11823;SDS011;5969;50.780;7.726;2023-09-19T11:34:39;4.35;;;2.17;;
11823;SDS011;5969;50.780;7.726;2023-09-19T11:40:37;5.90;;;2.38;;
11823;SDS011;5969;50.780;7.726;2023-09-19T11:46:03;4.28;;;2.10;;
11823;SDS011;5969;50.780;7.726;2023-09-19T11:48:31;6.72;;;2.55;;
11823;SDS011;5969;50.780;7.726;2023-09-19T11:50:59;7.03;;;2.53;;
11823;SDS011;5969;50.780;7.726;2023-09-19T11:53:32;6.28;;;2.25;;
11823;SDS011;5969;50.780;7.726;2023-09-19T11:56:01;7.10;;;2.47;;
11823;SDS011;5969;50.780;7.726;2023-09-19T11:58:32;5.80;;;2.38;;
11823;SDS011;5969;50.780;7.726;2023-09-19T12:00:59;4.63;;;2.20;;
11823;SDS011;5969;50.780;7.726;2023-09-19T12:03:33;6.43;;;2.40;;
11823;SDS011;5969;50.780;7.726;2023-09-19T12:06:11;8.25;;;2.63;;
11823;SDS011;5969;50.780;7.726;2023-09-19T12:08:39;6.32;;;2.40;;
11823;SDS011;5969;50.780;7.726;2023-09-19T12:11:11;5.80;;;2.10;;
11823;SDS011;5969;50.780;7.726;2023-09-19T12:13:41;7.50;;;2.33;;
11823;SDS011;5969;50.780;7.726;2023-09-19T12:16:11;7.40;;;2.60;;
11823;SDS011;5969;50.780;7.726;2023-09-19T12:18:40;7.63;;;1.85;;
11823;SDS011;5969;50.780;7.726;2023-09-19T12:21:08;6.80;;;2.50;;
11823;SDS011;5969;50.780;7.726;2023-09-19T12:23:57;4.57;;;2.10;;
11823;SDS011;5969;50.780;7.726;2023-09-19T12:26:36;7.95;;;2.50;;
11823;SDS011;5969;50.780;7.726;2023-09-19T12:29:05;3.20;;;1.92;;
11823;SDS011;5969;50.780;7.726;2023-09-19T12:31:46;5.28;;;1.98;;
11823;SDS011;5969;50.780;7.726;2023-09-19T12:34:22;6.25;;;1.90;;
11823;SDS011;5969;50.780;7.726;2023-09-19T12:37:02;4.80;;;2.08;;
11823;SDS011;5969;50.780;7.726;2023-09-19T12:39:32;5.57;;;2.20;;
11823;SDS011;5969;50.780;7.726;2023-09-19T12:42:00;4.15;;;1.80;;
11823;SDS011;5969;50.780;7.726;2023-09-19T12:44:29;7.60;;;2.20;;
11823;SDS011;5969;50.780;7.726;2023-09-19T12:46:56;2.67;;;2.03;;
11823;SDS011;5969;50.780;7.726;2023-09-19T12:49:24;4.25;;;2.00;;
11823;SDS011;5969;50.780;7.726;2023-09-19T12:51:54;5.90;;;2.17;;
11823;SDS011;5969;50.780;7.726;2023-09-19T12:54:23;4.85;;;2.17;;
11823;SDS011;5969;50.780;7.726;2023-09-19T12:56:51;6.07;;;2.17;;
11823;SDS011;5969;50.780;7.726;2023-09-19T12:59:19;4.13;;;2.17;;
11823;SDS011;5969;50.780;7.726;2023-09-19T13:02:03;3.38;;;1.70;;
11823;SDS011;5969;50.780;7.726;2023-09-19T13:04:31;4.47;;;2.05;;
11823;SDS011;5969;50.780;7.726;2023-09-19T13:06:59;4.97;;;2.20;;
11823;SDS011;5969;50.780;7.726;2023-09-19T13:09:27;4.40;;;2.13;;
11823;SDS011;5969;50.780;7.726;2023-09-19T13:12:00;5.90;;;2.22;;
11823;SDS011;5969;50.780;7.726;2023-09-19T13:14:28;6.22;;;1.83;;
11823;SDS011;5969;50.780;7.726;2023-09-19T13:16:59;5.30;;;2.15;;
11823;SDS011;5969;50.780;7.726;2023-09-19T13:19:35;4.70;;;1.90;;
11823;SDS011;5969;50.780;7.726;2023-09-19T13:22:02;3.53;;;2.08;;
11823;SDS011;5969;50.780;7.726;2023-09-19T13:24:29;3.95;;;2.00;;
11823;SDS011;5969;50.780;7.726;2023-09-19T13:26:58;3.72;;;2.03;;
11823;SDS011;5969;50.780;7.726;2023-09-19T13:29:27;4.00;;;1.90;;
11823;SDS011;5969;50.780;7.726;2023-09-19T13:31:55;5.53;;;1.80;;
11823;SDS011;5969;50.780;7.726;2023-09-19T13:34:22;4.60;;;1.88;;
11823;SDS011;5969;50.780;7.726;2023-09-19T13:36:49;3.28;;;1.92;;
11823;SDS011;5969;50.780;7.726;2023-09-19T13:39:16;4.07;;;1.75;;
11823;SDS011;5969;50.780;7.726;2023-09-19T13:41:44;5.28;;;2.08;;
11823;SDS011;5969;50.780;7.726;2023-09-19T13:44:11;2.88;;;1.95;;
11823;SDS011;5969;50.780;7.726;2023-09-19T13:46:40;4.88;;;2.10;;
11823;SDS011;5969;50.780;7.726;2023-09-19T13:49:10;4.10;;;2.00;;
11823;SDS011;5969;50.780;7.726;2023-09-19T13:51:37;3.88;;;1.70;;
11823;SDS011;5969;50.780;7.726;2023-09-19T13:54:08;4.90;;;1.70;;
11823;SDS011;5969;50.780;7.726;2023-09-19T13:56:36;3.35;;;1.63;;
11823;SDS011;5969;50.780;7.726;2023-09-19T13:59:03;4.60;;;1.75;;
11823;SDS011;5969;50.780;7.726;2023-09-19T14:01:30;4.60;;;1.58;;
11823;SDS011;5969;50.780;7.726;2023-09-19T14:03:58;4.05;;;1.80;;
11823;SDS011;5969;50.780;7.726;2023-09-19T14:06:30;4.32;;;1.88;;
11823;SDS011;5969;50.780;7.726;2023-09-19T14:08:59;3.72;;;2.00;;
11823;SDS011;5969;50.780;7.726;2023-09-19T14:11:29;4.07;;;1.73;;
11823;SDS011;5969;50.780;7.726;2023-09-19T14:14:11;5.07;;;1.90;;
11823;SDS011;5969;50.780;7.726;2023-09-19T14:16:38;4.78;;;1.70;;
11823;SDS011;5969;50.780;7.726;2023-09-19T14:19:08;3.47;;;1.80;;
11823;SDS011;5969;50.780;7.726;2023-09-19T14:21:35;3.45;;;1.30;;
11823;SDS011;5969;50.780;7.726;2023-09-19T14:24:07;4.65;;;1.85;;
11823;SDS011;5969;50.780;7.726;2023-09-19T14:26:37;8.95;;;1.90;;
11823;SDS011;5969;50.780;7.726;2023-09-19T14:29:04;4.47;;;1.63;;
11823;SDS011;5969;50.780;7.726;2023-09-19T14:31:36;3.38;;;1.60;;
11823;SDS011;5969;50.780;7.726;2023-09-19T14:34:05;4.15;;;1.73;;
11823;SDS011;5969;50.780;7.726;2023-09-19T14:36:32;4.63;;;1.60;;
11823;SDS011;5969;50.780;7.726;2023-09-19T14:39:00;2.75;;;1.30;;
11823;SDS011;5969;50.780;7.726;2023-09-19T14:41:27;3.58;;;1.60;;
11823;SDS011;5969;50.780;7.726;2023-09-19T14:43:56;3.35;;;1.40;;
11823;SDS011;5969;50.780;7.726;2023-09-19T14:46:23;1.92;;;1.50;;
11823;SDS011;5969;50.780;7.726;2023-09-19T14:48:50;2.70;;;1.30;;
11823;SDS011;5969;50.780;7.726;2023-09-19T14:51:28;2.78;;;1.55;;
11823;SDS011;5969;50.780;7.726;2023-09-19T14:53:57;3.53;;;1.60;;
11823;SDS011;5969;50.780;7.726;2023-09-19T14:56:29;3.22;;;1.55;;
11823;SDS011;5969;50.780;7.726;2023-09-19T14:58:56;4.60;;;1.60;;
11823;SDS011;5969;50.780;7.726;2023-09-19T15:01:23;2.65;;;1.40;;
11823;SDS011;5969;50.780;7.726;2023-09-19T15:03:50;4.18;;;1.70;;
11823;SDS011;5969;50.780;7.726;2023-09-19T15:06:19;3.28;;;1.70;;
11823;SDS011;5969;50.780;7.726;2023-09-19T15:08:46;3.65;;;1.50;;
11823;SDS011;5969;50.780;7.726;2023-09-19T15:11:17;6.20;;;1.55;;
11823;SDS011;5969;50.780;7.726;2023-09-19T15:13:45;3.83;;;1.50;;
11823;SDS011;5969;50.780;7.726;2023-09-19T15:16:13;3.78;;;1.50;;
11823;SDS011;5969;50.780;7.726;2023-09-19T15:18:40;3.95;;;1.50;;
11823;SDS011;5969;50.780;7.726;2023-09-19T15:21:10;2.83;;;1.50;;
11823;SDS011;5969;50.780;7.726;2023-09-19T15:23:42;2.80;;;1.55;;
11823;SDS011;5969;50.780;7.726;2023-09-19T15:26:12;2.65;;;1.60;;
11823;SDS011;5969;50.780;7.726;2023-09-19T15:28:43;3.13;;;1.88;;
11823;SDS011;5969;50.780;7.726;2023-09-19T15:31:11;2.63;;;1.52;;
11823;SDS011;5969;50.780;7.726;2023-09-19T15:33:38;3.65;;;1.60;;
11823;SDS011;5969;50.780;7.726;2023-09-19T15:36:06;3.65;;;1.33;;
11823;SDS011;5969;50.780;7.726;2023-09-19T15:41:22;2.28;;;1.27;;